Time;durP1;ratioP1;P1;durP2;ratioP2;P2;SDS_P1;SDS_P2;PMS_P1;PMS_P2;Temp;Humidity;BMP_temperature;BMP_pressure;BME280_temperature;BME280_humidity;BME280_pressure;Samples;Min_cycle;Max_cycle;Signal;HPM_P1;HPM_P2
2024/03/01 00:02:06;;;;;;;8.52;3.78;;;9.20;99.90;;;;;;4986760;28;20026;-79
2024/03/01 00:04:31;;;;;;;7.70;4.10;;;9.20;99.90;;;;;;4987721;28;20105;-78
2024/03/01 00:06:57;;;;;;;7.03;4.05;;;9.30;99.90;;;;;;4986942;28;20030;-79
2024/03/01 00:09:23;;;;;;;6.18;3.63;;;9.30;99.90;;;;;;4987782;28;20093;-79
2024/03/01 00:11:48;;;;;;;6.25;3.90;;;9.30;99.90;;;;;;4987607;28;20058;-79
2024/03/01 00:14:14;;;;;;;7.22;4.30;;;9.30;99.90;;;;;;4987585;28;20025;-78
2024/03/01 00:16:39;;;;;;;6.05;3.30;;;9.30;99.90;;;;;;4970322;28;20423;-78
2024/03/01 00:19:05;;;;;;;6.65;3.92;;;9.30;99.90;;;;;;4990786;28;20034;-80
2024/03/01 00:21:31;;;;;;;8.75;3.88;;;9.30;99.90;;;;;;4991914;28;20018;-80
2024/03/01 00:23:56;;;;;;;8.25;4.43;;;9.30;99.90;;;;;;4987228;28;20407;-79
2024/03/01 00:26:22;;;;;;;8.13;4.43;;;9.40;99.90;;;;;;4987744;28;20226;-79
2024/03/01 00:28:48;;;;;;;8.57;4.47;;;9.40;99.90;;;;;;4986716;28;20026;-79
2024/03/01 00:31:13;;;;;;;7.43;4.20;;;9.40;99.90;;;;;;4987852;28;20081;-79
2024/03/01 00:33:39;;;;;;;8.60;4.57;;;9.40;99.90;;;;;;5006472;28;20060;-78
2024/03/01 00:36:05;;;;;;;7.55;4.72;;;9.40;99.90;;;;;;5007390;28;20612;-79
2024/03/01 00:38:31;;;;;;;9.90;4.80;;;9.40;99.90;;;;;;4992581;28;20740;-78
2024/03/01 00:40:56;;;;;;;8.20;4.10;;;9.40;99.90;;;;;;5006688;28;20014;-79
2024/03/01 00:43:22;;;;;;;6.97;4.28;;;9.40;99.90;;;;;;4988860;28;20032;-78
2024/03/01 00:45:48;;;;;;;9.13;5.10;;;9.40;99.90;;;;;;5006556;28;20053;-79
2024/03/01 00:48:14;;;;;;;15.32;5.35;;;9.40;99.90;;;;;;5006355;28;20559;-78
2024/03/01 00:50:40;;;;;;;9.50;4.30;;;9.40;99.90;;;;;;5007108;28;20558;-79
2024/03/01 00:53:08;;;;;;;7.97;4.80;;;9.50;99.90;;;;;;5010402;28;20029;-79
2024/03/01 00:55:35;;;;;;;9.13;5.32;;;9.50;99.90;;;;;;4991704;28;20395;-78
2024/03/01 00:58:01;;;;;;;9.57;5.53;;;9.50;99.90;;;;;;5006196;28;20040;-78
2024/03/01 01:00:27;;;;;;;7.72;4.68;;;9.50;99.90;;;;;;5006734;28;20379;-79
2024/03/01 01:02:54;;;;;;;8.48;4.93;;;9.50;99.90;;;;;;5005713;28;20026;-78
2024/03/01 01:05:19;;;;;;;7.35;4.70;;;9.50;99.90;;;;;;5006427;28;20029;-78
2024/03/01 01:07:45;;;;;;;9.20;5.63;;;9.50;99.90;;;;;;5005726;28;20033;-78
2024/03/01 01:10:11;;;;;;;7.75;4.47;;;9.50;99.90;;;;;;5006366;28;20026;-78
2024/03/01 01:12:37;;;;;;;8.45;4.57;;;9.50;99.90;;;;;;5005871;28;20022;-78
2024/03/01 01:15:04;;;;;;;7.70;4.95;;;9.50;99.90;;;;;;5006319;28;20041;-78
2024/03/01 01:17:30;;;;;;;7.22;4.38;;;9.50;99.90;;;;;;5005731;28;20109;-78
2024/03/01 01:19:57;;;;;;;6.63;4.20;;;9.50;99.90;;;;;;5006388;28;20076;-78
2024/03/01 01:22:24;;;;;;;8.15;4.63;;;9.50;99.90;;;;;;4988710;28;20505;-78
2024/03/01 01:24:49;;;;;;;12.00;5.13;;;9.50;99.90;;;;;;5010663;28;20040;-78
2024/03/01 01:27:15;;;;;;;12.45;5.07;;;9.50;99.90;;;;;;5010176;28;20018;-78
2024/03/01 01:29:41;;;;;;;7.45;4.60;;;9.50;99.90;;;;;;5007948;28;20042;-78
2024/03/01 01:32:07;;;;;;;10.52;4.80;;;9.50;99.90;;;;;;5005668;28;20388;-78
2024/03/01 01:34:33;;;;;;;10.38;5.45;;;9.50;99.90;;;;;;4988215;28;20479;-78
2024/03/01 01:36:59;;;;;;;7.55;4.72;;;9.50;99.90;;;;;;5006128;28;20052;-78
2024/03/01 01:39:25;;;;;;;8.90;5.10;;;9.50;99.90;;;;;;5005912;28;20511;-78
2024/03/01 01:41:50;;;;;;;7.65;4.93;;;9.50;99.90;;;;;;5006050;28;20026;-78
2024/03/01 01:44:16;;;;;;;8.88;5.13;;;9.50;99.90;;;;;;5005740;28;20105;-78
2024/03/01 01:46:44;;;;;;;8.98;5.57;;;9.50;99.90;;;;;;5008249;28;20029;-78
2024/03/01 01:49:10;;;;;;;7.68;4.70;;;9.50;99.90;;;;;;4991582;28;20099;-77
2024/03/01 01:51:36;;;;;;;7.95;5.45;;;9.50;99.90;;;;;;5009896;28;20042;-78
2024/03/01 01:54:03;;;;;;;8.23;4.85;;;9.60;99.90;;;;;;5010844;28;20498;-78
2024/03/01 01:56:29;;;;;;;8.35;4.88;;;9.60;99.90;;;;;;5012069;28;20041;-78
2024/03/01 01:58:56;;;;;;;9.90;5.10;;;9.50;99.90;;;;;;5009155;28;20025;-77
2024/03/01 02:01:22;;;;;;;9.15;5.72;;;9.50;99.90;;;;;;4992259;28;20053;-78
2024/03/01 02:03:49;;;;;;;9.65;6.20;;;9.50;99.90;;;;;;5009044;28;20018;-78
2024/03/01 02:06:15;;;;;;;7.03;4.90;;;9.50;99.90;;;;;;5010132;28;20159;-78
2024/03/01 02:08:40;;;;;;;8.35;4.95;;;9.50;99.90;;;;;;5009381;28;20038;-78
2024/03/01 02:11:06;;;;;;;8.70;5.25;;;9.50;99.90;;;;;;4991549;28;20021;-78
2024/03/01 02:13:32;;;;;;;8.05;5.30;;;9.40;99.90;;;;;;5009230;28;20026;-78
2024/03/01 02:15:58;;;;;;;9.50;4.93;;;9.40;99.90;;;;;;4991468;28;20270;-78
2024/03/01 02:18:24;;;;;;;10.93;5.20;;;9.40;99.90;;;;;;5008779;28;20113;-78
2024/03/01 02:21:12;;;;;;;8.63;4.97;;;9.40;99.90;;;;;;5009136;28;20334;-77
2024/03/01 02:23:38;;;;;;;7.55;4.57;;;9.40;99.90;;;;;;5010959;28;20020;-77
2024/03/01 02:26:05;;;;;;;10.23;5.07;;;9.30;99.90;;;;;;5010889;28;20487;-77
2024/03/01 02:28:31;;;;;;;7.63;4.53;;;9.30;99.90;;;;;;4991272;28;20034;-77
2024/03/01 02:30:57;;;;;;;9.23;5.55;;;9.30;99.90;;;;;;4993474;28;20042;-77
2024/03/01 02:33:23;;;;;;;8.57;5.10;;;9.30;99.90;;;;;;4971719;28;20019;-78
2024/03/01 02:35:49;;;;;;;11.05;4.97;;;9.30;99.90;;;;;;4971986;28;20525;-78
2024/03/01 02:38:15;;;;;;;8.77;5.72;;;9.30;99.90;;;;;;4988963;28;20081;-76
2024/03/01 02:40:41;;;;;;;9.48;5.10;;;9.30;99.90;;;;;;4965822;28;20415;-78
2024/03/01 02:43:07;;;;;;;9.02;5.22;;;9.30;99.90;;;;;;4988878;28;20022;-78
2024/03/01 02:45:36;;;;;;;13.32;5.50;;;9.30;99.90;;;;;;4989397;28;20310;-78
2024/03/01 02:48:03;;;;;;;8.60;4.88;;;9.30;99.90;;;;;;4988723;28;20030;-78
2024/03/01 02:50:29;;;;;;;8.75;5.60;;;9.20;99.90;;;;;;4989221;28;20026;-79
2024/03/01 02:52:54;;;;;;;11.60;5.70;;;9.20;99.90;;;;;;4988317;28;20022;-79
2024/03/01 02:55:20;;;;;;;10.02;5.65;;;9.20;99.90;;;;;;4991714;28;20041;-78
2024/03/01 02:57:50;;;;;;;8.05;5.05;;;9.20;99.90;;;;;;4991791;28;20060;-78
2024/03/01 03:00:17;;;;;;;8.00;5.22;;;9.20;99.90;;;;;;4971914;28;20026;-78
2024/03/01 03:02:43;;;;;;;10.40;5.75;;;9.20;99.90;;;;;;4988638;28;20027;-79
2024/03/01 03:05:09;;;;;;;9.23;5.60;;;9.10;99.90;;;;;;4988973;28;20022;-79
2024/03/01 03:07:35;;;;;;;8.77;5.32;;;9.10;99.90;;;;;;4988340;28;20025;-79
2024/03/01 03:10:00;;;;;;;8.20;4.97;;;9.00;99.90;;;;;;4988974;28;20117;-79
2024/03/01 03:12:26;;;;;;;8.18;5.45;;;9.00;99.90;;;;;;4971096;28;20157;-79
2024/03/01 03:14:52;;;;;;;11.50;6.47;;;8.90;99.90;;;;;;4970898;28;20495;-78
2024/03/01 03:17:18;;;;;;;9.90;5.70;;;8.90;99.90;;;;;;4989038;28;20045;-79
2024/03/01 03:19:43;;;;;;;9.07;6.30;;;8.90;99.90;;;;;;4988308;28;20521;-78
2024/03/01 03:22:09;;;;;;;10.18;5.65;;;8.80;99.90;;;;;;4988459;28;20034;-78
2024/03/01 03:24:38;;;;;;;10.02;6.40;;;8.80;99.90;;;;;;4990617;28;20023;-79
2024/03/01 03:27:04;;;;;;;9.85;6.57;;;8.80;99.90;;;;;;4975362;28;20018;-79
2024/03/01 03:29:30;;;;;;;9.88;6.65;;;8.80;99.90;;;;;;4991927;28;20049;-78
2024/03/01 03:31:56;;;;;;;10.50;5.78;;;8.80;99.90;;;;;;4990468;28;20022;-78
2024/03/01 03:34:21;;;;;;;14.23;6.90;;;8.70;99.90;;;;;;5007775;28;20410;-78
2024/03/01 03:36:47;;;;;;;10.70;6.32;;;8.70;99.90;;;;;;5007465;28;20042;-78
2024/03/01 03:39:14;;;;;;;11.57;6.32;;;8.70;99.90;;;;;;5007337;28;20021;-78
2024/03/01 03:41:41;;;;;;;10.80;6.35;;;8.70;99.90;;;;;;4990119;28;20022;-79
2024/03/01 03:44:06;;;;;;;9.35;6.35;;;8.70;99.90;;;;;;5006977;28;20052;-79
2024/03/01 03:46:32;;;;;;;10.38;6.20;;;8.70;99.90;;;;;;5007811;28;20033;-79
2024/03/01 03:48:57;;;;;;;10.60;6.03;;;8.70;99.90;;;;;;5007085;28;20025;-78
2024/03/01 03:51:28;;;;;;;11.00;6.10;;;8.70;99.90;;;;;;5007629;28;20030;-78
2024/03/01 03:53:54;;;;;;;12.68;6.70;;;8.70;99.90;;;;;;4988904;28;20394;-78
2024/03/01 03:56:21;;;;;;;11.77;7.05;;;8.70;99.90;;;;;;5012276;28;20025;-78
2024/03/01 03:58:48;;;;;;;13.70;6.90;;;8.70;99.90;;;;;;5007148;28;20109;-78
2024/03/01 04:01:14;;;;;;;11.52;6.45;;;8.70;99.90;;;;;;5007995;28;20103;-78
2024/03/01 04:03:40;;;;;;;10.15;6.40;;;8.70;99.90;;;;;;5007512;28;20040;-78
2024/03/01 04:06:07;;;;;;;11.13;7.15;;;8.70;99.90;;;;;;5007271;28;20018;-78
2024/03/01 04:08:36;;;;;;;10.32;6.57;;;8.60;99.90;;;;;;5006704;28;20491;-78
2024/03/01 04:11:05;;;;;;;11.63;7.03;;;8.70;99.90;;;;;;5007127;28;20053;-77
2024/03/01 04:13:32;;;;;;;11.95;7.10;;;8.70;99.90;;;;;;5006934;28;20104;-78
2024/03/01 04:15:57;;;;;;;11.27;7.15;;;8.60;99.90;;;;;;4989665;28;20029;-79
2024/03/01 04:18:27;;;;;;;13.32;7.32;;;8.60;99.90;;;;;;5006715;28;20036;-78
2024/03/01 04:20:57;;;;;;;10.00;6.28;;;8.60;99.90;;;;;;5007139;28;20036;-79
2024/03/01 04:23:23;;;;;;;11.23;7.05;;;8.60;99.90;;;;;;5006837;28;20014;-78
2024/03/01 04:25:51;;;;;;;12.88;7.20;;;8.60;99.90;;;;;;5006775;28;20032;-78
2024/03/01 04:28:26;;;;;;;10.82;7.03;;;8.60;99.90;;;;;;5006840;28;20017;-78
2024/03/01 04:30:52;;;;;;;5.75;3.65;;;8.50;99.90;;;;;;4991523;28;20526;-78
2024/03/01 04:33:18;;;;;;;5.07;2.40;;;8.60;99.90;;;;;;4969326;28;20220;-78
2024/03/01 04:35:44;;;;;;;4.85;3.00;;;8.70;99.90;;;;;;4987368;28;20113;-78
2024/03/01 04:38:10;;;;;;;4.18;2.97;;;8.90;99.90;;;;;;4986421;28;20030;-78
2024/03/01 04:40:37;;;;;;;4.80;3.10;;;9.00;99.90;;;;;;4987295;28;20035;-79
2024/03/01 04:43:04;;;;;;;4.65;3.45;;;9.00;99.90;;;;;;4986955;28;20033;-79
2024/03/01 04:45:30;;;;;;;6.22;3.65;;;9.00;99.90;;;;;;4987207;28;20034;-78
2024/03/01 04:47:56;;;;;;;4.78;3.50;;;9.00;99.90;;;;;;4986871;28;20092;-80
2024/03/01 04:50:22;;;;;;;5.88;3.67;;;9.00;99.90;;;;;;4987161;28;20026;-78
2024/03/01 04:52:48;;;;;;;6.07;3.63;;;9.00;99.90;;;;;;4990311;28;20029;-78
2024/03/01 04:55:14;;;;;;;5.78;3.25;;;8.90;99.90;;;;;;4987056;28;20027;-79
2024/03/01 04:57:40;;;;;;;4.30;3.10;;;8.90;99.90;;;;;;4986844;28;20037;-79
2024/03/01 05:00:12;;;;;;;5.65;3.47;;;8.80;99.90;;;;;;4986644;28;20070;-78
2024/03/01 05:02:44;;;;;;;6.35;2.92;;;8.80;99.90;;;;;;4986916;28;20602;-78
2024/03/01 05:05:11;;;;;;;4.57;2.90;;;8.80;99.90;;;;;;4986338;28;20034;-79
2024/03/01 05:07:37;;;;;;;3.97;2.90;;;8.70;99.90;;;;;;4986705;28;20027;-78
2024/03/01 05:10:08;;;;;;;7.43;3.13;;;8.70;99.90;;;;;;4986480;28;20038;-79
2024/03/01 05:12:36;;;;;;;4.65;2.85;;;8.70;99.90;;;;;;4969473;28;20449;-79
2024/03/01 05:15:04;;;;;;;3.60;2.70;;;8.60;99.90;;;;;;4986168;28;20062;-79
2024/03/01 05:17:34;;;;;;;4.88;3.10;;;8.50;99.90;;;;;;4986986;28;20532;-78
2024/03/01 05:20:00;;;;;;;3.83;2.75;;;8.60;99.90;;;;;;4986015;28;20031;-78
2024/03/01 05:22:26;;;;;;;6.03;3.10;;;8.50;99.90;;;;;;4991027;28;20034;-79
2024/03/01 05:24:52;;;;;;;4.85;2.65;;;8.50;99.90;;;;;;4989499;28;20026;-79
2024/03/01 05:27:18;;;;;;;3.58;2.40;;;8.40;99.90;;;;;;4986699;28;20025;-79
2024/03/01 05:29:44;;;;;;;4.20;2.58;;;8.40;99.90;;;;;;4986330;28;20039;-79
2024/03/01 05:32:10;;;;;;;3.67;2.03;;;8.30;99.90;;;;;;4986657;28;20026;-79
2024/03/01 05:34:36;;;;;;;5.57;2.60;;;8.30;99.90;;;;;;4986017;28;20027;-79
2024/03/01 05:37:02;;;;;;;4.32;2.15;;;8.30;99.90;;;;;;4986590;28;20033;-79
2024/03/01 05:39:28;;;;;;;3.97;2.42;;;8.20;99.90;;;;;;4968879;28;20480;-80
2024/03/01 05:41:54;;;;;;;4.28;2.78;;;8.20;99.90;;;;;;4986802;28;20026;-80
2024/03/01 05:44:20;;;;;;;4.38;2.70;;;8.20;99.90;;;;;;4986038;28;20029;-79
2024/03/01 05:46:45;;;;;;;3.15;2.10;;;8.10;99.90;;;;;;4969171;28;20026;-79
2024/03/01 05:49:11;;;;;;;3.05;1.90;;;8.10;99.90;;;;;;4985829;28;20483;-79
2024/03/01 05:51:38;;;;;;;3.10;1.92;;;8.10;99.90;;;;;;4986186;28;20133;-79
2024/03/01 05:54:04;;;;;;;3.63;2.20;;;8.10;99.90;;;;;;4985667;28;20518;-79
2024/03/01 05:56:30;;;;;;;2.58;1.77;;;8.10;99.90;;;;;;4988173;28;20022;-79
2024/03/01 05:58:56;;;;;;;4.13;2.35;;;8.10;99.90;;;;;;4987926;28;20344;-79
2024/03/01 06:01:23;;;;;;;5.45;2.72;;;8.10;99.90;;;;;;4986524;28;20018;-79
2024/03/01 06:03:48;;;;;;;7.57;2.60;;;8.10;99.90;;;;;;4967950;28;20019;-79
2024/03/01 06:06:20;;;;;;;4.10;2.63;;;8.10;99.90;;;;;;4986412;28;20100;-79
2024/03/01 06:08:46;;;;;;;5.28;3.22;;;8.10;99.90;;;;;;4986341;28;20027;-79
2024/03/01 06:11:12;;;;;;;7.65;3.55;;;8.10;99.90;;;;;;4968475;28;20488;-80
2024/03/01 06:13:39;;;;;;;4.63;3.20;;;8.10;99.90;;;;;;4985949;28;20034;-79
2024/03/01 06:16:05;;;;;;;5.15;3.25;;;8.10;99.90;;;;;;4968635;28;20019;-80
2024/03/01 06:18:31;;;;;;;4.82;2.95;;;8.10;99.90;;;;;;4985884;28;20023;-80
2024/03/01 06:20:57;;;;;;;5.22;2.97;;;8.10;99.90;;;;;;4985989;28;20453;-79
2024/03/01 06:23:23;;;;;;;5.18;3.67;;;8.10;99.90;;;;;;4986740;28;20018;-80
2024/03/01 06:25:48;;;;;;;6.43;4.10;;;8.10;99.90;;;;;;4990778;28;20531;-80
2024/03/01 06:28:14;;;;;;;7.18;5.07;;;8.10;99.90;;;;;;4988310;28;20029;-80
2024/03/01 06:30:40;;;;;;;6.10;4.65;;;8.10;99.90;;;;;;4986114;28;20189;-79
2024/03/01 06:33:06;;;;;;;5.97;4.03;;;8.10;99.90;;;;;;4988735;28;20022;-79
2024/03/01 06:35:32;;;;;;;8.27;4.38;;;8.00;99.90;;;;;;4989407;28;20506;-80
2024/03/01 06:37:57;;;;;;;6.72;3.80;;;8.00;99.90;;;;;;4989303;28;20125;-78
2024/03/01 06:40:23;;;;;;;5.38;3.25;;;8.00;99.90;;;;;;4989551;28;20022;-79
2024/03/01 06:42:49;;;;;;;5.78;3.20;;;8.00;99.90;;;;;;4989551;28;20018;-78
2024/03/01 06:45:15;;;;;;;5.45;2.60;;;8.00;99.90;;;;;;4989046;28;20506;-79
2024/03/01 06:47:41;;;;;;;4.03;2.15;;;8.00;99.90;;;;;;4989593;28;20121;-80
2024/03/01 06:50:08;;;;;;;3.42;2.10;;;7.90;99.90;;;;;;4988338;28;20342;-78
2024/03/01 06:52:35;;;;;;;8.00;2.53;;;7.90;99.90;;;;;;4972288;28;20023;-78
2024/03/01 06:55:01;;;;;;;3.05;1.83;;;7.90;99.90;;;;;;4975883;28;20037;-79
2024/03/01 06:57:26;;;;;;;3.63;2.28;;;7.90;99.90;;;;;;4991651;28;20023;-79
2024/03/01 06:59:52;;;;;;;4.32;2.28;;;7.80;99.90;;;;;;4988707;28;20491;-79
2024/03/01 07:02:18;;;;;;;4.53;2.33;;;7.80;99.90;;;;;;4989324;28;20034;-79
2024/03/01 07:04:43;;;;;;;5.32;2.67;;;7.80;99.90;;;;;;4970956;28;20104;-79
2024/03/01 07:07:09;;;;;;;6.32;2.80;;;7.80;99.90;;;;;;4976419;28;20039;-79
2024/03/01 07:09:35;;;;;;;6.03;2.42;;;7.80;99.90;;;;;;4988053;28;20037;-79
2024/03/01 07:12:01;;;;;;;5.90;2.70;;;7.80;99.90;;;;;;4987501;28;20034;-79
2024/03/01 07:14:26;;;;;;;5.90;2.40;;;7.80;99.90;;;;;;4993674;28;20029;-79
2024/03/01 07:16:54;;;;;;;4.95;2.22;;;7.80;99.90;;;;;;4994523;28;20037;-79
2024/03/01 07:19:20;;;;;;;5.30;2.90;;;7.70;99.90;;;;;;4987975;28;20062;-79
2024/03/01 07:21:46;;;;;;;4.75;2.80;;;7.80;99.90;;;;;;4989428;28;20490;-79
2024/03/01 07:24:12;;;;;;;6.60;2.60;;;7.70;99.90;;;;;;4994581;28;20492;-79
2024/03/01 07:26:38;;;;;;;5.97;2.78;;;7.70;99.90;;;;;;4991058;28;20045;-79
2024/03/01 07:29:04;;;;;;;6.70;2.60;;;7.70;99.90;;;;;;4975328;28;20507;-79
2024/03/01 07:31:30;;;;;;;6.82;3.15;;;7.70;99.90;;;;;;4978814;28;20120;-79
2024/03/01 07:33:55;;;;;;;11.32;3.53;;;7.70;99.90;;;;;;5003595;28;20504;-79
2024/03/01 07:36:21;;;;;;;5.82;2.78;;;7.70;99.90;;;;;;4989283;28;20034;-79
2024/03/01 07:38:47;;;;;;;6.03;2.83;;;7.70;99.90;;;;;;4982863;28;20399;-79
2024/03/01 07:41:13;;;;;;;6.50;2.95;;;7.70;99.90;;;;;;4987976;28;20133;-79
2024/03/01 07:43:39;;;;;;;8.73;3.22;;;7.80;99.90;;;;;;4987099;28;20022;-79
2024/03/01 07:46:05;;;;;;;8.23;3.30;;;7.80;99.90;;;;;;4987801;28;20034;-78
2024/03/01 07:48:32;;;;;;;7.45;3.72;;;7.70;99.90;;;;;;4985041;28;20031;-79
2024/03/01 07:50:58;;;;;;;5.28;3.45;;;7.70;99.90;;;;;;4965390;28;20125;-79
2024/03/01 07:53:23;;;;;;;5.90;3.00;;;7.70;99.90;;;;;;4974564;28;20169;-79
2024/03/01 07:55:49;;;;;;;7.80;3.75;;;7.70;99.90;;;;;;4990151;28;20034;-79
2024/03/01 07:58:15;;;;;;;7.28;3.65;;;7.70;99.90;;;;;;4987737;28;20022;-79
2024/03/01 08:00:41;;;;;;;6.05;3.58;;;7.70;99.90;;;;;;4996595;28;20041;-79
2024/03/01 08:03:08;;;;;;;9.95;4.50;;;7.70;99.90;;;;;;4981366;28;20034;-79
2024/03/01 08:05:35;;;;;;;7.45;4.60;;;7.70;99.90;;;;;;4992797;28;20108;-79
2024/03/01 08:08:01;;;;;;;9.45;4.90;;;7.60;99.90;;;;;;4999031;28;20029;-79
2024/03/01 08:10:34;;;;;;;9.40;4.57;;;7.60;99.90;;;;;;4981251;28;20073;-79
2024/03/01 08:13:04;;;;;;;9.18;5.50;;;7.70;99.90;;;;;;4989895;28;20510;-79
2024/03/01 08:15:35;;;;;;;9.93;5.65;;;7.70;99.90;;;;;;4971717;28;20034;-79
2024/03/01 08:18:13;;;;;;;10.85;6.03;;;7.70;99.90;;;;;;4987911;28;20031;-79
2024/03/01 08:20:48;;;;;;;12.50;6.53;;;7.70;99.90;;;;;;4987182;28;20029;-79
2024/03/01 08:23:15;;;;;;;13.57;6.53;;;7.70;99.90;;;;;;4971269;28;20030;-79
2024/03/01 08:25:40;;;;;;;11.68;7.47;;;7.70;99.90;;;;;;4974213;28;20027;-78
2024/03/01 08:28:09;;;;;;;14.20;8.65;;;7.80;99.90;;;;;;4996886;28;20041;-79
2024/03/01 08:30:38;;;;;;;13.68;8.38;;;7.80;99.90;;;;;;4984774;28;20046;-79
2024/03/01 08:33:04;;;;;;;13.30;7.70;;;7.80;99.90;;;;;;5003644;28;20026;-79
2024/03/01 08:35:30;;;;;;;12.32;8.43;;;7.80;99.90;;;;;;5013924;28;20021;-78
2024/03/01 08:37:56;;;;;;;15.40;9.18;;;7.90;99.90;;;;;;5007160;28;20437;-80
2024/03/01 08:40:52;;;;;;;15.00;9.55;;;8.00;99.90;;;;;;5006690;28;20482;-79
2024/03/01 08:43:17;;;;;;;11.25;8.40;;;8.00;99.90;;;;;;5006881;28;20442;-79
2024/03/01 08:45:44;;;;;;;10.95;8.10;;;8.10;99.90;;;;;;5005533;28;20400;-78
2024/03/01 08:48:32;;;;;;;11.40;8.38;;;8.00;99.90;;;;;;4997777;28;20038;-80
2024/03/01 08:50:58;;;;;;;11.10;8.20;;;8.00;99.90;;;;;;4982396;28;20145;-80
2024/03/01 08:53:53;;;;;;;14.98;8.43;;;8.10;99.90;;;;;;4985332;28;20038;-81
2024/03/01 08:56:20;;;;;;;11.95;8.02;;;8.10;99.90;;;;;;5005565;28;20025;-78
2024/03/01 08:58:49;;;;;;;15.30;9.68;;;8.10;99.90;;;;;;4993681;28;20022;-80
2024/03/01 09:01:29;;;;;;;12.77;8.52;;;8.20;99.90;;;;;;4995660;28;20022;-79
2024/03/01 09:04:21;;;;;;;11.85;7.82;;;8.20;99.90;;;;;;4975718;28;20043;-82
2024/03/01 09:07:16;;;;;;;17.00;9.00;;;8.20;99.90;;;;;;4997145;28;20108;-78
2024/03/01 09:09:42;;;;;;;13.95;8.82;;;8.20;99.90;;;;;;4992490;28;20804;-81
2024/03/01 09:12:24;;;;;;;13.30;8.63;;;8.20;99.90;;;;;;4986257;28;20057;-79
2024/03/01 09:14:51;;;;;;;13.25;8.77;;;8.20;99.90;;;;;;4989649;28;20038;-78
2024/03/01 09:17:18;;;;;;;13.80;8.85;;;8.20;99.90;;;;;;4987297;28;20026;-79
2024/03/01 09:19:47;;;;;;;12.27;8.20;;;8.30;99.90;;;;;;4991655;28;20033;-77
2024/03/01 09:22:16;;;;;;;11.00;8.05;;;8.30;99.90;;;;;;4988363;28;20060;-77
2024/03/01 09:24:43;;;;;;;11.73;7.78;;;8.30;99.90;;;;;;5000960;28;20083;-78
2024/03/01 09:27:31;;;;;;;12.18;7.55;;;8.30;99.90;;;;;;5003845;28;20026;-77
2024/03/01 09:29:58;;;;;;;14.43;7.88;;;8.40;99.90;;;;;;4992564;28;20039;-78
2024/03/01 09:32:24;;;;;;;15.80;8.38;;;8.40;99.90;;;;;;4987913;28;20085;-79
2024/03/01 09:34:50;;;;;;;12.57;7.65;;;8.40;99.90;;;;;;4992871;28;20030;-77
2024/03/01 09:37:21;;;;;;;9.35;6.28;;;8.50;99.90;;;;;;4994095;28;20026;-77
2024/03/01 09:39:47;;;;;;;11.90;6.10;;;8.50;99.90;;;;;;4997606;28;20038;-78
2024/03/01 09:42:48;;;;;;;9.60;6.40;;;8.60;99.90;;;;;;4991159;28;20019;-78
2024/03/01 09:45:46;;;;;;;9.50;6.32;;;8.70;99.90;;;;;;4989546;28;20021;-78
2024/03/01 09:48:27;;;;;;;9.82;5.90;;;8.80;99.90;;;;;;4986588;28;20034;-78
2024/03/01 09:51:29;;;;;;;11.10;6.38;;;8.80;99.90;;;;;;4984367;28;20121;-77
2024/03/01 09:53:55;;;;;;;10.13;5.60;;;8.90;99.90;;;;;;4979150;28;20104;-77
2024/03/01 09:56:40;;;;;;;9.25;5.45;;;8.90;99.90;;;;;;4985126;28;20034;-77
2024/03/01 09:59:27;;;;;;;11.52;5.07;;;9.00;99.90;;;;;;4967630;28;20040;-78
2024/03/01 10:02:03;;;;;;;11.00;5.00;;;8.90;99.90;;;;;;4982691;28;20023;-81
2024/03/01 10:04:48;;;;;;;10.93;5.18;;;8.90;99.90;;;;;;4989099;28;20418;-81
2024/03/01 10:07:20;;;;;;;10.95;4.95;;;9.00;99.90;;;;;;4987506;28;20431;-80
2024/03/01 10:09:54;;;;;;;10.38;5.03;;;9.10;99.90;;;;;;4971163;28;20045;-78
2024/03/01 10:12:46;;;;;;;12.15;4.10;;;9.20;99.90;;;;;;5000031;28;20152;-81
2024/03/01 10:15:30;;;;;;;7.70;4.97;;;9.30;99.90;;;;;;4969650;28;20380;-79
2024/03/01 10:18:11;;;;;;;9.02;4.38;;;9.50;99.90;;;;;;5005867;28;20038;-79
2024/03/01 10:21:09;;;;;;;11.40;4.20;;;9.50;99.90;;;;;;4994654;28;20029;-78
2024/03/01 10:24:09;;;;;;;9.90;4.05;;;9.60;99.90;;;;;;4970613;28;20114;-79
2024/03/01 10:26:38;;;;;;;4.95;2.83;;;9.60;99.90;;;;;;4989333;28;20022;-80
2024/03/01 10:29:35;;;;;;;8.07;3.40;;;9.70;99.90;;;;;;4984359;28;20022;-84
2024/03/01 10:32:22;;;;;;;8.07;3.08;;;9.80;99.90;;;;;;4972588;28;20378;-79
2024/03/01 10:35:09;;;;;;;7.75;3.25;;;9.80;99.90;;;;;;4988325;28;20050;-80
2024/03/01 10:38:00;;;;;;;10.02;3.00;;;9.80;99.90;;;;;;4994229;28;20042;-83
2024/03/01 10:40:32;;;;;;;8.13;3.25;;;9.80;99.90;;;;;;4976866;28;20030;-81
2024/03/01 10:43:11;;;;;;;10.38;4.00;;;9.80;99.90;;;;;;4969919;28;20076;-79
2024/03/01 10:46:06;;;;;;;7.45;3.05;;;9.90;99.90;;;;;;4988576;28;20038;-78
2024/03/01 10:49:13;;;;;;;11.38;4.10;;;10.00;99.90;;;;;;4982363;28;20045;-78
2024/03/01 10:51:46;;;;;;;8.85;3.70;;;10.00;99.90;;;;;;4988447;28;20103;-78
2024/03/01 10:54:13;;;;;;;8.23;3.70;;;10.10;99.90;;;;;;4988490;28;20022;-78
2024/03/01 10:56:39;;;;;;;9.90;3.65;;;10.20;99.90;;;;;;4993958;28;20574;-79
2024/03/01 10:59:14;;;;;;;8.38;3.53;;;10.20;99.90;;;;;;4989743;28;20025;-78
2024/03/01 11:02:11;;;;;;;7.78;3.50;;;10.20;99.90;;;;;;4971756;28;20117;-78
2024/03/01 11:05:12;;;;;;;8.70;3.42;;;10.10;99.90;;;;;;4987384;28;20050;-77
2024/03/01 11:08:10;;;;;;;7.53;3.30;;;10.00;99.90;;;;;;4988684;28;20445;-79
2024/03/01 11:10:48;;;;;;;7.03;2.78;;;9.90;99.90;;;;;;4986311;28;20488;-77
2024/03/01 11:13:23;;;;;;;4.28;2.47;;;9.90;99.90;;;;;;4988806;28;20565;-77
2024/03/01 11:15:50;;;;;;;6.25;2.97;;;9.90;99.90;;;;;;4987388;28;20035;-79
2024/03/01 11:18:23;;;;;;;5.70;2.70;;;10.00;99.90;;;;;;4991148;28;20121;-78
2024/03/01 11:20:52;;;;;;;8.98;2.90;;;10.00;99.90;;;;;;4991356;28;20042;-78
2024/03/01 11:23:28;;;;;;;5.75;2.90;;;10.10;99.90;;;;;;4988402;28;20030;-78
2024/03/01 11:26:16;;;;;;;3.70;2.10;;;10.10;99.90;;;;;;4991013;28;20491;-78
2024/03/01 11:28:48;;;;;;;6.05;2.70;;;10.10;99.90;;;;;;4965211;28;20030;-78
2024/03/01 11:31:20;;;;;;;6.63;2.53;;;10.20;99.90;;;;;;4989789;28;20061;-78
2024/03/01 11:33:48;;;;;;;7.90;2.97;;;10.20;99.90;;;;;;4963953;28;20022;-78
2024/03/01 11:36:40;;;;;;;7.72;2.22;;;10.30;99.90;;;;;;4973023;28;20130;-79
2024/03/01 11:39:18;;;;;;;5.65;2.20;;;10.40;99.90;;;;;;4963673;28;20125;-79
2024/03/01 11:42:14;;;;;;;8.25;2.40;;;10.50;99.90;;;;;;4980820;28;20023;-78
2024/03/01 11:45:08;;;;;;;9.25;3.35;;;10.50;99.90;;;;;;4964961;28;20057;-77
2024/03/01 11:47:43;;;;;;;4.38;2.03;;;10.60;99.90;;;;;;4995373;28;20026;-79
2024/03/01 11:50:57;;;;;;;3.45;1.90;;;10.50;99.90;;;;;;4989494;28;20030;-79
2024/03/01 11:53:47;;;;;;;5.10;1.70;;;10.60;99.90;;;;;;4920735;28;20072;-77
2024/03/01 11:56:49;;;;;;;4.60;1.50;;;10.70;99.90;;;;;;4977886;28;20026;-78
2024/03/01 11:59:52;;;;;;;5.72;1.80;;;10.80;99.90;;;;;;4994497;28;20022;-78
2024/03/01 12:02:40;;;;;;;5.22;1.50;;;10.80;99.90;;;;;;4991835;28;20368;-77
2024/03/01 12:05:21;;;;;;;5.90;1.55;;;10.80;99.90;;;;;;4948542;28;20038;-78
2024/03/01 12:07:52;;;;;;;8.70;2.47;;;10.80;99.90;;;;;;4991266;28;20030;-77
2024/03/01 12:10:44;;;;;;;5.00;1.63;;;10.80;99.90;;;;;;4998969;28;20037;-79
2024/03/01 12:13:13;;;;;;;6.68;1.98;;;10.90;99.90;;;;;;4983864;28;20018;-78
2024/03/01 12:16:10;;;;;;;6.50;2.05;;;11.10;99.90;;;;;;4969920;28;20041;-78
2024/03/01 12:18:46;;;;;;;3.92;1.48;;;11.10;99.90;;;;;;4960272;28;20035;-80
2024/03/01 12:21:30;;;;;;;5.47;1.55;;;11.10;99.90;;;;;;4979459;28;20097;-79
2024/03/01 12:24:18;;;;;;;5.03;1.70;;;11.10;99.90;;;;;;4990198;28;20054;-79
2024/03/01 12:27:17;;;;;;;3.67;1.30;;;11.20;99.90;;;;;;4986310;28;20491;-79
2024/03/01 12:30:09;;;;;;;3.45;1.42;;;11.30;99.90;;;;;;4983243;28;20050;-76
2024/03/01 12:32:50;;;;;;;5.18;1.30;;;11.40;99.90;;;;;;4994365;28;20030;-78
2024/03/01 12:35:34;;;;;;;1.88;1.20;;;11.40;99.90;;;;;;4992548;28;20093;-79
2024/03/01 12:38:08;;;;;;;4.40;1.33;;;11.50;99.90;;;;;;4991744;28;20034;-79
2024/03/01 12:40:47;;;;;;;3.05;1.20;;;11.50;99.90;;;;;;4992667;28;20483;-79
2024/03/01 12:43:27;;;;;;;3.63;1.20;;;11.40;99.90;;;;;;4989781;28;20584;-78
2024/03/01 12:46:19;;;;;;;2.90;1.13;;;11.20;99.90;;;;;;4995247;28;20025;-79
2024/03/01 12:49:10;;;;;;;4.38;1.35;;;11.10;99.90;;;;;;4981823;28;20285;-78
2024/03/01 12:51:50;;;;;;;2.55;1.20;;;11.00;99.90;;;;;;4986204;28;20104;-79
2024/03/01 12:54:23;;;;;;;3.65;1.20;;;11.00;99.90;;;;;;4993386;28;20026;-81
2024/03/01 12:57:09;;;;;;;1.73;1.10;;;11.00;99.90;;;;;;4988066;28;20057;-78
2024/03/01 12:59:37;;;;;;;2.42;1.30;;;10.90;99.90;;;;;;4928073;28;20053;-79
2024/03/01 13:02:16;;;;;;;2.08;1.10;;;10.90;99.90;;;;;;4997811;28;20065;-78
2024/03/01 13:05:06;;;;;;;1.40;0.80;;;10.80;99.90;;;;;;4975416;28;20415;-80
2024/03/01 13:07:34;;;;;;;4.13;1.30;;;10.80;99.90;;;;;;4985892;28;20038;-77
2024/03/01 13:10:00;;;;;;;2.50;0.90;;;10.80;99.90;;;;;;4985913;28;20109;-78
2024/03/01 13:12:27;;;;;;;2.53;0.73;;;10.80;99.90;;;;;;4969453;28;20043;-78
2024/03/01 13:15:18;;;;;;;2.22;0.82;;;10.80;99.90;;;;;;4985874;28;20046;-78